sensor_id;sensor_type;location;lat;lon;timestamp;P1;durP1;ratioP1;P2;durP2;ratioP2
20855;SDS011;63058;49.424;8.420;2023-12-20T00:02:15;5.13;;;3.50;;
20855;SDS011;63058;49.424;8.420;2023-12-20T00:04:41;5.00;;;3.20;;
20855;SDS011;63058;49.424;8.420;2023-12-20T00:07:10;2.90;;;2.60;;
20855;SDS011;63058;49.424;8.420;2023-12-20T00:09:36;3.38;;;2.47;;
20855;SDS011;63058;49.424;8.420;2023-12-20T00:12:04;3.72;;;2.83;;
20855;SDS011;63058;49.424;8.420;2023-12-20T00:14:30;4.75;;;2.70;;
20855;SDS011;63058;49.424;8.420;2023-12-20T00:16:55;3.10;;;2.63;;
20855;SDS011;63058;49.424;8.420;2023-12-20T00:19:21;3.83;;;3.00;;
20855;SDS011;63058;49.424;8.420;2023-12-20T00:21:53;4.15;;;2.90;;
20855;SDS011;63058;49.424;8.420;2023-12-20T00:24:19;3.33;;;2.42;;
20855;SDS011;63058;49.424;8.420;2023-12-20T00:26:45;2.58;;;2.20;;
20855;SDS011;63058;49.424;8.420;2023-12-20T00:29:11;3.38;;;2.50;;
20855;SDS011;63058;49.424;8.420;2023-12-20T00:31:43;3.47;;;2.85;;
20855;SDS011;63058;49.424;8.420;2023-12-20T00:34:09;4.65;;;2.75;;
20855;SDS011;63058;49.424;8.420;2023-12-20T00:36:34;2.90;;;2.28;;
20855;SDS011;63058;49.424;8.420;2023-12-20T00:39:03;4.45;;;2.80;;
20855;SDS011;63058;49.424;8.420;2023-12-20T00:41:35;4.22;;;3.03;;
20855;SDS011;63058;49.424;8.420;2023-12-20T00:44:21;4.90;;;2.47;;
20855;SDS011;63058;49.424;8.420;2023-12-20T00:46:47;2.92;;;2.15;;
20855;SDS011;63058;49.424;8.420;2023-12-20T00:49:16;3.00;;;2.17;;
20855;SDS011;63058;49.424;8.420;2023-12-20T00:51:48;2.42;;;2.20;;
20855;SDS011;63058;49.424;8.420;2023-12-20T00:54:15;3.40;;;2.20;;
20855;SDS011;63058;49.424;8.420;2023-12-20T00:56:41;2.47;;;2.10;;
20855;SDS011;63058;49.424;8.420;2023-12-20T00:59:13;3.38;;;1.92;;
20855;SDS011;63058;49.424;8.420;2023-12-20T01:01:41;2.45;;;1.77;;
20855;SDS011;63058;49.424;8.420;2023-12-20T01:04:16;1.95;;;1.60;;
20855;SDS011;63058;49.424;8.420;2023-12-20T01:06:45;1.90;;;1.40;;
20855;SDS011;63058;49.424;8.420;2023-12-20T01:09:17;1.88;;;1.60;;
20855;SDS011;63058;49.424;8.420;2023-12-20T01:11:43;1.70;;;1.30;;
20855;SDS011;63058;49.424;8.420;2023-12-20T01:14:12;1.55;;;1.20;;
20855;SDS011;63058;49.424;8.420;2023-12-20T01:16:45;1.30;;;1.17;;
20855;SDS011;63058;49.424;8.420;2023-12-20T01:19:13;1.80;;;1.25;;
20855;SDS011;63058;49.424;8.420;2023-12-20T01:21:40;1.20;;;1.00;;
20855;SDS011;63058;49.424;8.420;2023-12-20T01:24:14;1.42;;;1.20;;
20855;SDS011;63058;49.424;8.420;2023-12-20T01:26:49;2.22;;;1.17;;
20855;SDS011;63058;49.424;8.420;2023-12-20T01:29:15;1.20;;;1.05;;
20855;SDS011;63058;49.424;8.420;2023-12-20T01:31:43;1.55;;;0.95;;
20855;SDS011;63058;49.424;8.420;2023-12-20T01:34:12;1.42;;;1.00;;
20855;SDS011;63058;49.424;8.420;2023-12-20T01:36:40;1.02;;;0.80;;
20855;SDS011;63058;49.424;8.420;2023-12-20T01:39:06;1.02;;;0.93;;
20855;SDS011;63058;49.424;8.420;2023-12-20T01:41:34;2.28;;;1.00;;
20855;SDS011;63058;49.424;8.420;2023-12-20T01:44:06;1.30;;;1.20;;
20855;SDS011;63058;49.424;8.420;2023-12-20T01:46:31;3.13;;;0.90;;
20855;SDS011;63058;49.424;8.420;2023-12-20T01:48:57;1.60;;;1.15;;
20855;SDS011;63058;49.424;8.420;2023-12-20T01:51:29;1.10;;;0.90;;
20855;SDS011;63058;49.424;8.420;2023-12-20T01:53:58;1.88;;;0.93;;
20855;SDS011;63058;49.424;8.420;2023-12-20T01:56:29;0.95;;;0.80;;
20855;SDS011;63058;49.424;8.420;2023-12-20T01:58:58;1.30;;;1.08;;
20855;SDS011;63058;49.424;8.420;2023-12-20T02:01:31;1.10;;;0.95;;
20855;SDS011;63058;49.424;8.420;2023-12-20T02:04:06;1.10;;;1.00;;
20855;SDS011;63058;49.424;8.420;2023-12-20T02:06:41;2.65;;;1.27;;
20855;SDS011;63058;49.424;8.420;2023-12-20T02:09:11;1.65;;;1.23;;
20855;SDS011;63058;49.424;8.420;2023-12-20T02:11:41;1.60;;;1.42;;
20855;SDS011;63058;49.424;8.420;2023-12-20T02:14:14;2.15;;;1.20;;
20855;SDS011;63058;49.424;8.420;2023-12-20T02:16:39;2.13;;;1.17;;
20855;SDS011;63058;49.424;8.420;2023-12-20T02:19:14;1.90;;;1.00;;
20855;SDS011;63058;49.424;8.420;2023-12-20T02:21:49;2.88;;;1.20;;
20855;SDS011;63058;49.424;8.420;2023-12-20T02:24:15;1.42;;;1.20;;
20855;SDS011;63058;49.424;8.420;2023-12-20T02:26:45;2.53;;;1.10;;
20855;SDS011;63058;49.424;8.420;2023-12-20T02:29:23;1.45;;;1.33;;
20855;SDS011;63058;49.424;8.420;2023-12-20T02:31:53;1.42;;;1.17;;
20855;SDS011;63058;49.424;8.420;2023-12-20T02:34:27;1.23;;;1.10;;
20855;SDS011;63058;49.424;8.420;2023-12-20T02:39:44;2.38;;;1.48;;
20855;SDS011;63058;49.424;8.420;2023-12-20T02:42:17;2.83;;;1.83;;
20855;SDS011;63058;49.424;8.420;2023-12-20T02:44:53;1.98;;;1.52;;
20855;SDS011;63058;49.424;8.420;2023-12-20T02:47:27;2.47;;;1.67;;
20855;SDS011;63058;49.424;8.420;2023-12-20T02:50:00;2.47;;;1.63;;
20855;SDS011;63058;49.424;8.420;2023-12-20T02:52:25;2.80;;;1.80;;
20855;SDS011;63058;49.424;8.420;2023-12-20T02:55:01;1.92;;;1.73;;
20855;SDS011;63058;49.424;8.420;2023-12-20T02:57:36;2.00;;;1.75;;
20855;SDS011;63058;49.424;8.420;2023-12-20T03:00:06;2.83;;;2.28;;
20855;SDS011;63058;49.424;8.420;2023-12-20T03:02:35;2.47;;;1.70;;
20855;SDS011;63058;49.424;8.420;2023-12-20T03:05:10;2.15;;;1.92;;
20855;SDS011;63058;49.424;8.420;2023-12-20T03:07:39;1.88;;;1.55;;
20855;SDS011;63058;49.424;8.420;2023-12-20T03:10:06;2.45;;;1.60;;
20855;SDS011;63058;49.424;8.420;2023-12-20T03:12:36;2.03;;;1.60;;
20855;SDS011;63058;49.424;8.420;2023-12-20T03:15:08;1.87;;;1.40;;
20855;SDS011;63058;49.424;8.420;2023-12-20T03:17:52;1.80;;;1.58;;
20855;SDS011;63058;49.424;8.420;2023-12-20T03:20:22;1.95;;;1.60;;
20855;SDS011;63058;49.424;8.420;2023-12-20T03:22:53;1.80;;;1.35;;
20855;SDS011;63058;49.424;8.420;2023-12-20T03:25:28;2.95;;;1.95;;
20855;SDS011;63058;49.424;8.420;2023-12-20T03:28:04;2.20;;;1.70;;
20855;SDS011;63058;49.424;8.420;2023-12-20T03:30:30;1.98;;;1.67;;
20855;SDS011;63058;49.424;8.420;2023-12-20T03:33:05;1.88;;;1.63;;
20855;SDS011;63058;49.424;8.420;2023-12-20T03:35:31;1.92;;;1.58;;
20855;SDS011;63058;49.424;8.420;2023-12-20T03:38:09;1.90;;;1.63;;
20855;SDS011;63058;49.424;8.420;2023-12-20T03:40:40;1.67;;;1.40;;
20855;SDS011;63058;49.424;8.420;2023-12-20T03:43:06;1.70;;;1.47;;
20855;SDS011;63058;49.424;8.420;2023-12-20T03:45:45;1.85;;;1.45;;
20855;SDS011;63058;49.424;8.420;2023-12-20T03:48:25;1.35;;;1.20;;
20855;SDS011;63058;49.424;8.420;2023-12-20T03:50:50;1.75;;;1.10;;
20855;SDS011;63058;49.424;8.420;2023-12-20T03:53:41;1.20;;;0.90;;
20855;SDS011;63058;49.424;8.420;2023-12-20T03:56:14;1.13;;;1.00;;
20855;SDS011;63058;49.424;8.420;2023-12-20T03:58:51;2.17;;;1.10;;
20855;SDS011;63058;49.424;8.420;2023-12-20T04:01:23;1.20;;;0.95;;
20855;SDS011;63058;49.424;8.420;2023-12-20T04:03:57;2.17;;;1.00;;
20855;SDS011;63058;49.424;8.420;2023-12-20T04:06:26;1.30;;;1.00;;
20855;SDS011;63058;49.424;8.420;2023-12-20T04:09:18;1.40;;;1.10;;
20855;SDS011;63058;49.424;8.420;2023-12-20T04:11:54;1.10;;;1.00;;
20855;SDS011;63058;49.424;8.420;2023-12-20T04:14:22;0.85;;;0.80;;
20855;SDS011;63058;49.424;8.420;2023-12-20T04:16:48;1.10;;;1.00;;
20855;SDS011;63058;49.424;8.420;2023-12-20T04:19:17;0.98;;;0.80;;
20855;SDS011;63058;49.424;8.420;2023-12-20T04:21:42;1.33;;;0.98;;
20855;SDS011;63058;49.424;8.420;2023-12-20T04:24:08;0.60;;;0.60;;
20855;SDS011;63058;49.424;8.420;2023-12-20T04:26:36;1.55;;;0.80;;
20855;SDS011;63058;49.424;8.420;2023-12-20T04:29:02;0.60;;;0.60;;
20855;SDS011;63058;49.424;8.420;2023-12-20T04:31:32;0.70;;;0.70;;
20855;SDS011;63058;49.424;8.420;2023-12-20T04:33:57;1.10;;;0.60;;
20855;SDS011;63058;49.424;8.420;2023-12-20T04:36:26;0.77;;;0.77;;
20855;SDS011;63058;49.424;8.420;2023-12-20T04:38:56;1.75;;;0.75;;
20855;SDS011;63058;49.424;8.420;2023-12-20T04:41:22;0.60;;;0.60;;
20855;SDS011;63058;49.424;8.420;2023-12-20T04:43:47;1.42;;;0.95;;
20855;SDS011;63058;49.424;8.420;2023-12-20T04:46:13;1.17;;;0.90;;
20855;SDS011;63058;49.424;8.420;2023-12-20T04:48:39;1.90;;;0.73;;
20855;SDS011;63058;49.424;8.420;2023-12-20T04:51:04;2.53;;;0.90;;
20855;SDS011;63058;49.424;8.420;2023-12-20T04:53:39;1.08;;;0.82;;
20855;SDS011;63058;49.424;8.420;2023-12-20T04:56:05;1.13;;;0.90;;
20855;SDS011;63058;49.424;8.420;2023-12-20T04:58:32;1.33;;;1.10;;
20855;SDS011;63058;49.424;8.420;2023-12-20T05:00:59;0.80;;;0.80;;
20855;SDS011;63058;49.424;8.420;2023-12-20T05:03:29;1.23;;;1.02;;
20855;SDS011;63058;49.424;8.420;2023-12-20T05:05:58;1.35;;;1.20;;
20855;SDS011;63058;49.424;8.420;2023-12-20T05:08:23;1.27;;;1.15;;
20855;SDS011;63058;49.424;8.420;2023-12-20T05:10:50;1.02;;;0.93;;
20855;SDS011;63058;49.424;8.420;2023-12-20T05:13:16;1.27;;;1.15;;
20855;SDS011;63058;49.424;8.420;2023-12-20T05:15:43;1.52;;;1.20;;
20855;SDS011;63058;49.424;8.420;2023-12-20T05:18:09;2.72;;;0.80;;
20855;SDS011;63058;49.424;8.420;2023-12-20T05:20:34;2.03;;;1.10;;
20855;SDS011;63058;49.424;8.420;2023-12-20T05:23:00;1.40;;;1.08;;
20855;SDS011;63058;49.424;8.420;2023-12-20T05:25:27;1.20;;;1.10;;
20855;SDS011;63058;49.424;8.420;2023-12-20T05:27:59;1.67;;;1.38;;
20855;SDS011;63058;49.424;8.420;2023-12-20T05:30:34;1.75;;;1.40;;
20855;SDS011;63058;49.424;8.420;2023-12-20T05:32:59;1.33;;;1.23;;
20855;SDS011;63058;49.424;8.420;2023-12-20T05:35:25;1.98;;;1.40;;
20855;SDS011;63058;49.424;8.420;2023-12-20T05:37:53;1.30;;;1.10;;
20855;SDS011;63058;49.424;8.420;2023-12-20T05:40:31;1.30;;;1.05;;
20855;SDS011;63058;49.424;8.420;2023-12-20T05:43:03;1.38;;;1.13;;
20855;SDS011;63058;49.424;8.420;2023-12-20T05:45:34;1.92;;;1.73;;
20855;SDS011;63058;49.424;8.420;2023-12-20T05:48:01;1.90;;;1.60;;
20855;SDS011;63058;49.424;8.420;2023-12-20T05:50:27;1.38;;;1.23;;
20855;SDS011;63058;49.424;8.420;2023-12-20T05:53:13;1.90;;;1.70;;
20855;SDS011;63058;49.424;8.420;2023-12-20T05:55:38;1.40;;;1.30;;
20855;SDS011;63058;49.424;8.420;2023-12-20T05:58:04;1.80;;;1.52;;
20855;SDS011;63058;49.424;8.420;2023-12-20T06:00:30;1.35;;;1.20;;
20855;SDS011;63058;49.424;8.420;2023-12-20T06:02:58;1.63;;;1.52;;
20855;SDS011;63058;49.424;8.420;2023-12-20T06:05:29;1.30;;;1.20;;
20855;SDS011;63058;49.424;8.420;2023-12-20T06:07:58;1.45;;;1.33;;
20855;SDS011;63058;49.424;8.420;2023-12-20T06:10:31;1.58;;;1.40;;
20855;SDS011;63058;49.424;8.420;2023-12-20T06:13:05;1.65;;;1.40;;
20855;SDS011;63058;49.424;8.420;2023-12-20T06:18:22;2.42;;;1.50;;
20855;SDS011;63058;49.424;8.420;2023-12-20T06:20:55;1.98;;;1.52;;
20855;SDS011;63058;49.424;8.420;2023-12-20T06:23:30;2.15;;;1.52;;
20855;SDS011;63058;49.424;8.420;2023-12-20T06:25:58;1.70;;;1.60;;
20855;SDS011;63058;49.424;8.420;2023-12-20T06:28:27;2.00;;;1.80;;
20855;SDS011;63058;49.424;8.420;2023-12-20T06:30:56;2.03;;;1.80;;
20855;SDS011;63058;49.424;8.420;2023-12-20T06:33:31;2.55;;;2.33;;
20855;SDS011;63058;49.424;8.420;2023-12-20T06:36:01;1.58;;;1.48;;
20855;SDS011;63058;49.424;8.420;2023-12-20T06:38:31;2.28;;;1.83;;
20855;SDS011;63058;49.424;8.420;2023-12-20T06:41:15;2.08;;;1.88;;
20855;SDS011;63058;49.424;8.420;2023-12-20T06:43:41;2.22;;;1.92;;
20855;SDS011;63058;49.424;8.420;2023-12-20T06:46:07;2.88;;;1.90;;
20855;SDS011;63058;49.424;8.420;2023-12-20T06:48:33;2.88;;;2.38;;
20855;SDS011;63058;49.424;8.420;2023-12-20T06:51:00;2.92;;;2.63;;
20855;SDS011;63058;49.424;8.420;2023-12-20T06:53:29;4.22;;;2.50;;
20855;SDS011;63058;49.424;8.420;2023-12-20T06:55:55;2.70;;;2.40;;
20855;SDS011;63058;49.424;8.420;2023-12-20T06:58:23;3.88;;;2.83;;
20855;SDS011;63058;49.424;8.420;2023-12-20T07:00:48;2.17;;;1.90;;
20855;SDS011;63058;49.424;8.420;2023-12-20T07:03:15;3.22;;;2.38;;
20855;SDS011;63058;49.424;8.420;2023-12-20T07:05:41;2.25;;;1.90;;
20855;SDS011;63058;49.424;8.420;2023-12-20T07:08:07;2.15;;;1.70;;
20855;SDS011;63058;49.424;8.420;2023-12-20T07:10:49;2.50;;;1.70;;
20855;SDS011;63058;49.424;8.420;2023-12-20T07:13:14;1.73;;;1.33;;
20855;SDS011;63058;49.424;8.420;2023-12-20T07:15:40;2.58;;;1.50;;
20855;SDS011;63058;49.424;8.420;2023-12-20T07:18:06;5.07;;;1.77;;
20855;SDS011;63058;49.424;8.420;2023-12-20T07:20:41;2.70;;;1.73;;
20855;SDS011;63058;49.424;8.420;2023-12-20T07:23:07;4.37;;;2.40;;
20855;SDS011;63058;49.424;8.420;2023-12-20T07:25:44;2.80;;;2.17;;
20855;SDS011;63058;49.424;8.420;2023-12-20T07:28:10;2.67;;;1.90;;
20855;SDS011;63058;49.424;8.420;2023-12-20T07:30:51;3.20;;;1.90;;
20855;SDS011;63058;49.424;8.420;2023-12-20T07:33:23;5.47;;;2.00;;
20855;SDS011;63058;49.424;8.420;2023-12-20T07:35:49;2.90;;;1.53;;
20855;SDS011;63058;49.424;8.420;2023-12-20T07:38:25;2.83;;;1.67;;
20855;SDS011;63058;49.424;8.420;2023-12-20T07:41:05;2.33;;;1.60;;
20855;SDS011;63058;49.424;8.420;2023-12-20T07:43:36;3.67;;;1.90;;
20855;SDS011;63058;49.424;8.420;2023-12-20T07:46:05;2.27;;;1.60;;
20855;SDS011;63058;49.424;8.420;2023-12-20T07:49:00;2.00;;;1.60;;
20855;SDS011;63058;49.424;8.420;2023-12-20T07:51:26;2.30;;;1.60;;
20855;SDS011;63058;49.424;8.420;2023-12-20T07:53:52;1.90;;;1.40;;
20855;SDS011;63058;49.424;8.420;2023-12-20T07:56:23;1.70;;;1.50;;
20855;SDS011;63058;49.424;8.420;2023-12-20T07:58:52;2.55;;;1.80;;
20855;SDS011;63058;49.424;8.420;2023-12-20T08:01:23;1.97;;;1.37;;
20855;SDS011;63058;49.424;8.420;2023-12-20T08:04:09;1.53;;;1.30;;
20855;SDS011;63058;49.424;8.420;2023-12-20T08:06:48;2.90;;;1.40;;
20855;SDS011;63058;49.424;8.420;2023-12-20T08:09:49;2.60;;;1.47;;
20855;SDS011;63058;49.424;8.420;2023-12-20T08:12:19;3.50;;;1.63;;
20855;SDS011;63058;49.424;8.420;2023-12-20T08:14:45;3.27;;;1.33;;
20855;SDS011;63058;49.424;8.420;2023-12-20T08:17:14;3.53;;;1.80;;
20855;SDS011;63058;49.424;8.420;2023-12-20T08:20:06;3.33;;;1.30;;
20855;SDS011;63058;49.424;8.420;2023-12-20T08:25:28;3.77;;;1.40;;
20855;SDS011;63058;49.424;8.420;2023-12-20T08:27:54;2.50;;;1.20;;
20855;SDS011;63058;49.424;8.420;2023-12-20T08:30:33;3.23;;;1.70;;
20855;SDS011;63058;49.424;8.420;2023-12-20T08:33:05;2.43;;;1.60;;
20855;SDS011;63058;49.424;8.420;2023-12-20T08:35:56;3.63;;;1.47;;
20855;SDS011;63058;49.424;8.420;2023-12-20T08:38:33;3.50;;;1.57;;
20855;SDS011;63058;49.424;8.420;2023-12-20T08:41:07;3.28;;;1.52;;
20855;SDS011;63058;49.424;8.420;2023-12-20T08:43:39;3.87;;;1.60;;
20855;SDS011;63058;49.424;8.420;2023-12-20T08:46:07;2.87;;;1.33;;
20855;SDS011;63058;49.424;8.420;2023-12-20T08:48:51;2.20;;;1.37;;
20855;SDS011;63058;49.424;8.420;2023-12-20T08:51:40;6.97;;;1.30;;
20855;SDS011;63058;49.424;8.420;2023-12-20T08:54:10;2.42;;;1.15;;
20855;SDS011;63058;49.424;8.420;2023-12-20T08:56:39;4.82;;;1.50;;
20855;SDS011;63058;49.424;8.420;2023-12-20T08:59:06;9.25;;;1.92;;
20855;SDS011;63058;49.424;8.420;2023-12-20T09:01:34;2.90;;;1.38;;
20855;SDS011;63058;49.424;8.420;2023-12-20T09:04:00;5.28;;;1.70;;
20855;SDS011;63058;49.424;8.420;2023-12-20T09:06:46;3.38;;;1.63;;
20855;SDS011;63058;49.424;8.420;2023-12-20T09:09:17;3.10;;;1.45;;
20855;SDS011;63058;49.424;8.420;2023-12-20T09:12:01;5.15;;;2.00;;
20855;SDS011;63058;49.424;8.420;2023-12-20T09:14:38;3.28;;;2.03;;
20855;SDS011;63058;49.424;8.420;2023-12-20T09:17:04;4.45;;;1.73;;
20855;SDS011;63058;49.424;8.420;2023-12-20T09:19:33;3.50;;;1.95;;
20855;SDS011;63058;49.424;8.420;2023-12-20T09:22:01;4.03;;;1.55;;
20855;SDS011;63058;49.424;8.420;2023-12-20T09:24:43;2.95;;;1.55;;
20855;SDS011;63058;49.424;8.420;2023-12-20T09:27:11;5.67;;;2.00;;
20855;SDS011;63058;49.424;8.420;2023-12-20T09:29:49;8.80;;;2.55;;
20855;SDS011;63058;49.424;8.420;2023-12-20T09:32:52;7.05;;;1.80;;
20855;SDS011;63058;49.424;8.420;2023-12-20T09:35:19;7.05;;;2.22;;
20855;SDS011;63058;49.424;8.420;2023-12-20T09:37:56;7.82;;;2.13;;
20855;SDS011;63058;49.424;8.420;2023-12-20T09:40:26;5.70;;;2.00;;
20855;SDS011;63058;49.424;8.420;2023-12-20T09:42:57;6.32;;;2.10;;
20855;SDS011;63058;49.424;8.420;2023-12-20T09:45:34;6.82;;;1.92;;
20855;SDS011;63058;49.424;8.420;2023-12-20T09:48:00;4.38;;;2.08;;
20855;SDS011;63058;49.424;8.420;2023-12-20T09:50:33;8.88;;;2.80;;
20855;SDS011;63058;49.424;8.420;2023-12-20T09:53:18;10.68;;;3.00;;
20855;SDS011;63058;49.424;8.420;2023-12-20T09:55:54;7.63;;;2.50;;
20855;SDS011;63058;49.424;8.420;2023-12-20T09:58:29;9.70;;;2.20;;
20855;SDS011;63058;49.424;8.420;2023-12-20T10:00:55;5.75;;;2.00;;
20855;SDS011;63058;49.424;8.420;2023-12-20T10:03:23;6.03;;;2.13;;
20855;SDS011;63058;49.424;8.420;2023-12-20T10:05:52;8.25;;;1.98;;
20855;SDS011;63058;49.424;8.420;2023-12-20T10:08:28;4.70;;;1.60;;
20855;SDS011;63058;49.424;8.420;2023-12-20T10:10:58;4.50;;;1.75;;
20855;SDS011;63058;49.424;8.420;2023-12-20T10:13:30;7.18;;;2.05;;
20855;SDS011;63058;49.424;8.420;2023-12-20T10:18:40;3.97;;;1.23;;
20855;SDS011;63058;49.424;8.420;2023-12-20T10:21:06;4.75;;;1.63;;
20855;SDS011;63058;49.424;8.420;2023-12-20T10:23:34;7.47;;;1.70;;
20855;SDS011;63058;49.424;8.420;2023-12-20T10:26:00;3.50;;;1.40;;
20855;SDS011;63058;49.424;8.420;2023-12-20T10:28:26;4.72;;;1.35;;
20855;SDS011;63058;49.424;8.420;2023-12-20T10:30:57;7.22;;;1.73;;
20855;SDS011;63058;49.424;8.420;2023-12-20T10:33:27;5.50;;;1.65;;
20855;SDS011;63058;49.424;8.420;2023-12-20T10:35:59;4.85;;;1.50;;
20855;SDS011;63058;49.424;8.420;2023-12-20T10:38:24;4.30;;;1.50;;
20855;SDS011;63058;49.424;8.420;2023-12-20T10:40:52;5.82;;;1.58;;
20855;SDS011;63058;49.424;8.420;2023-12-20T10:43:21;6.70;;;1.70;;
20855;SDS011;63058;49.424;8.420;2023-12-20T10:45:48;5.13;;;1.80;;
20855;SDS011;63058;49.424;8.420;2023-12-20T10:48:13;4.90;;;2.17;;
20855;SDS011;63058;49.424;8.420;2023-12-20T10:50:40;5.55;;;1.73;;
20855;SDS011;63058;49.424;8.420;2023-12-20T10:53:06;5.30;;;1.58;;
20855;SDS011;63058;49.424;8.420;2023-12-20T10:55:32;5.28;;;1.92;;
20855;SDS011;63058;49.424;8.420;2023-12-20T10:58:02;2.70;;;1.70;;
20855;SDS011;63058;49.424;8.420;2023-12-20T11:00:41;6.45;;;1.58;;
20855;SDS011;63058;49.424;8.420;2023-12-20T11:03:11;6.78;;;1.77;;
20855;SDS011;63058;49.424;8.420;2023-12-20T11:05:49;5.72;;;1.95;;
20855;SDS011;63058;49.424;8.420;2023-12-20T11:08:33;6.45;;;1.48;;
20855;SDS011;63058;49.424;8.420;2023-12-20T11:11:07;5.15;;;1.75;;
20855;SDS011;63058;49.424;8.420;2023-12-20T11:13:35;3.97;;;1.58;;
20855;SDS011;63058;49.424;8.420;2023-12-20T11:16:05;3.78;;;1.40;;
20855;SDS011;63058;49.424;8.420;2023-12-20T11:18:32;4.70;;;1.75;;
20855;SDS011;63058;49.424;8.420;2023-12-20T11:21:00;6.68;;;2.05;;
20855;SDS011;63058;49.424;8.420;2023-12-20T11:23:29;5.72;;;1.92;;
20855;SDS011;63058;49.424;8.420;2023-12-20T11:25:56;3.65;;;1.40;;
20855;SDS011;63058;49.424;8.420;2023-12-20T11:28:25;5.10;;;1.60;;
20855;SDS011;63058;49.424;8.420;2023-12-20T11:30:52;4.10;;;1.73;;
20855;SDS011;63058;49.424;8.420;2023-12-20T11:33:22;6.32;;;1.80;;
20855;SDS011;63058;49.424;8.420;2023-12-20T11:35:57;5.35;;;1.85;;
20855;SDS011;63058;49.424;8.420;2023-12-20T11:38:25;5.53;;;2.00;;
20855;SDS011;63058;49.424;8.420;2023-12-20T11:40:50;2.90;;;1.80;;
20855;SDS011;63058;49.424;8.420;2023-12-20T11:43:37;4.10;;;1.55;;
20855;SDS011;63058;49.424;8.420;2023-12-20T11:46:07;3.58;;;1.77;;
20855;SDS011;63058;49.424;8.420;2023-12-20T11:48:35;4.70;;;2.08;;
20855;SDS011;63058;49.424;8.420;2023-12-20T11:51:02;7.45;;;2.25;;
20855;SDS011;63058;49.424;8.420;2023-12-20T11:53:34;5.50;;;2.20;;
20855;SDS011;63058;49.424;8.420;2023-12-20T11:55:59;5.55;;;1.90;;
20855;SDS011;63058;49.424;8.420;2023-12-20T11:58:27;4.63;;;1.92;;
20855;SDS011;63058;49.424;8.420;2023-12-20T12:00:53;4.40;;;1.98;;
20855;SDS011;63058;49.424;8.420;2023-12-20T12:03:20;5.90;;;2.05;;
20855;SDS011;63058;49.424;8.420;2023-12-20T12:05:49;4.63;;;1.80;;
20855;SDS011;63058;49.424;8.420;2023-12-20T12:08:15;8.32;;;2.42;;
20855;SDS011;63058;49.424;8.420;2023-12-20T12:10:42;8.57;;;2.70;;
20855;SDS011;63058;49.424;8.420;2023-12-20T12:13:08;7.22;;;2.25;;
20855;SDS011;63058;49.424;8.420;2023-12-20T12:15:35;4.18;;;2.15;;
20855;SDS011;63058;49.424;8.420;2023-12-20T12:18:01;3.88;;;2.10;;
20855;SDS011;63058;49.424;8.420;2023-12-20T12:20:27;9.00;;;2.55;;
20855;SDS011;63058;49.424;8.420;2023-12-20T12:23:02;6.03;;;2.55;;
20855;SDS011;63058;49.424;8.420;2023-12-20T12:25:29;6.90;;;2.40;;
20855;SDS011;63058;49.424;8.420;2023-12-20T12:27:56;5.97;;;2.03;;
20855;SDS011;63058;49.424;8.420;2023-12-20T12:30:23;6.28;;;2.20;;
20855;SDS011;63058;49.424;8.420;2023-12-20T12:32:50;3.55;;;1.85;;
20855;SDS011;63058;49.424;8.420;2023-12-20T12:35:16;5.28;;;1.60;;
20855;SDS011;63058;49.424;8.420;2023-12-20T12:37:42;3.92;;;1.83;;
20855;SDS011;63058;49.424;8.420;2023-12-20T12:40:12;6.30;;;2.35;;
20855;SDS011;63058;49.424;8.420;2023-12-20T12:42:39;7.05;;;2.17;;
20855;SDS011;63058;49.424;8.420;2023-12-20T12:45:06;9.77;;;2.50;;
20855;SDS011;63058;49.424;8.420;2023-12-20T12:47:32;5.70;;;2.13;;
20855;SDS011;63058;49.424;8.420;2023-12-20T12:49:59;5.70;;;1.88;;
20855;SDS011;63058;49.424;8.420;2023-12-20T12:52:24;7.85;;;2.05;;
20855;SDS011;63058;49.424;8.420;2023-12-20T12:54:51;6.72;;;2.33;;
20855;SDS011;63058;49.424;8.420;2023-12-20T12:57:17;4.22;;;2.25;;
20855;SDS011;63058;49.424;8.420;2023-12-20T12:59:44;4.95;;;2.05;;
20855;SDS011;63058;49.424;8.420;2023-12-20T13:02:11;5.53;;;2.55;;
20855;SDS011;63058;49.424;8.420;2023-12-20T13:04:38;4.90;;;2.08;;
20855;SDS011;63058;49.424;8.420;2023-12-20T13:07:04;5.28;;;2.28;;
20855;SDS011;63058;49.424;8.420;2023-12-20T13:09:30;4.95;;;2.05;;
20855;SDS011;63058;49.424;8.420;2023-12-20T13:11:55;6.78;;;2.25;;
20855;SDS011;63058;49.424;8.420;2023-12-20T13:14:21;6.05;;;2.20;;
20855;SDS011;63058;49.424;8.420;2023-12-20T13:16:46;4.65;;;2.30;;
20855;SDS011;63058;49.424;8.420;2023-12-20T13:19:12;5.25;;;2.13;;
20855;SDS011;63058;49.424;8.420;2023-12-20T13:21:37;9.52;;;2.20;;
20855;SDS011;63058;49.424;8.420;2023-12-20T13:24:03;8.20;;;2.35;;
20855;SDS011;63058;49.424;8.420;2023-12-20T13:26:29;5.22;;;2.00;;
20855;SDS011;63058;49.424;8.420;2023-12-20T13:28:55;2.75;;;1.70;;
20855;SDS011;63058;49.424;8.420;2023-12-20T13:31:20;6.35;;;2.22;;
20855;SDS011;63058;49.424;8.420;2023-12-20T13:33:46;4.90;;;1.95;;
20855;SDS011;63058;49.424;8.420;2023-12-20T13:36:12;5.57;;;2.20;;
20855;SDS011;63058;49.424;8.420;2023-12-20T13:38:38;5.35;;;2.05;;
20855;SDS011;63058;49.424;8.420;2023-12-20T13:41:04;7.93;;;2.17;;
20855;SDS011;63058;49.424;8.420;2023-12-20T13:43:30;5.47;;;2.00;;
20855;SDS011;63058;49.424;8.420;2023-12-20T13:45:59;6.47;;;1.90;;
20855;SDS011;63058;49.424;8.420;2023-12-20T13:48:25;4.75;;;1.88;;
20855;SDS011;63058;49.424;8.420;2023-12-20T13:50:50;5.20;;;1.83;;
20855;SDS011;63058;49.424;8.420;2023-12-20T13:53:16;4.32;;;1.85;;
20855;SDS011;63058;49.424;8.420;2023-12-20T13:55:42;4.07;;;1.60;;
20855;SDS011;63058;49.424;8.420;2023-12-20T13:58:07;4.85;;;2.33;;
20855;SDS011;63058;49.424;8.420;2023-12-20T14:00:35;7.78;;;2.10;;
20855;SDS011;63058;49.424;8.420;2023-12-20T14:03:01;3.95;;;1.50;;
20855;SDS011;63058;49.424;8.420;2023-12-20T14:05:28;5.88;;;1.70;;
20855;SDS011;63058;49.424;8.420;2023-12-20T14:07:53;6.22;;;1.63;;
20855;SDS011;63058;49.424;8.420;2023-12-20T14:10:19;6.43;;;1.73;;
20855;SDS011;63058;49.424;8.420;2023-12-20T14:12:44;4.20;;;1.73;;
20855;SDS011;63058;49.424;8.420;2023-12-20T14:15:10;3.95;;;1.58;;
20855;SDS011;63058;49.424;8.420;2023-12-20T14:17:38;2.92;;;1.50;;
20855;SDS011;63058;49.424;8.420;2023-12-20T14:20:05;4.88;;;1.63;;
20855;SDS011;63058;49.424;8.420;2023-12-20T14:22:32;4.95;;;1.80;;
20855;SDS011;63058;49.424;8.420;2023-12-20T14:24:57;5.78;;;2.25;;
20855;SDS011;63058;49.424;8.420;2023-12-20T14:27:23;5.93;;;1.55;;
20855;SDS011;63058;49.424;8.420;2023-12-20T14:29:52;5.03;;;1.50;;
20855;SDS011;63058;49.424;8.420;2023-12-20T14:32:18;4.47;;;1.67;;
20855;SDS011;63058;49.424;8.420;2023-12-20T14:34:44;5.82;;;1.60;;
20855;SDS011;63058;49.424;8.420;2023-12-20T14:37:09;3.22;;;1.48;;
20855;SDS011;63058;49.424;8.420;2023-12-20T14:39:35;4.57;;;1.98;;
20855;SDS011;63058;49.424;8.420;2023-12-20T14:42:06;3.15;;;1.40;;
20855;SDS011;63058;49.424;8.420;2023-12-20T14:44:38;6.18;;;1.90;;
20855;SDS011;63058;49.424;8.420;2023-12-20T14:47:04;5.82;;;1.90;;
20855;SDS011;63058;49.424;8.420;2023-12-20T14:49:30;6.35;;;2.03;;
20855;SDS011;63058;49.424;8.420;2023-12-20T14:51:56;7.65;;;2.03;;
20855;SDS011;63058;49.424;8.420;2023-12-20T14:54:21;5.53;;;1.65;;
20855;SDS011;63058;49.424;8.420;2023-12-20T14:56:47;5.60;;;1.95;;
20855;SDS011;63058;49.424;8.420;2023-12-20T14:59:13;5.68;;;1.67;;
20855;SDS011;63058;49.424;8.420;2023-12-20T15:01:38;6.95;;;2.20;;
20855;SDS011;63058;49.424;8.420;2023-12-20T15:04:08;5.20;;;1.80;;
20855;SDS011;63058;49.424;8.420;2023-12-20T15:06:33;5.25;;;1.67;;
20855;SDS011;63058;49.424;8.420;2023-12-20T15:08:59;5.80;;;1.40;;
20855;SDS011;63058;49.424;8.420;2023-12-20T15:11:25;5.43;;;1.70;;
20855;SDS011;63058;49.424;8.420;2023-12-20T15:13:51;5.85;;;1.80;;
20855;SDS011;63058;49.424;8.420;2023-12-20T15:16:21;6.05;;;1.80;;